createdAt,value
2022-09-12T00:04:44.282Z,14.28
2022-09-12T00:09:53.132Z,14.21
2022-09-12T00:14:59.336Z,14.20
2022-09-12T00:20:05.248Z,14.14
2022-09-12T00:25:07.496Z,14.09
2022-09-12T00:30:11.673Z,14.08
2022-09-12T00:35:15.442Z,14.03
2022-09-12T00:40:17.508Z,14.00
2022-09-12T00:45:27.725Z,13.97
2022-09-12T00:50:29.877Z,14.02
2022-09-12T00:55:44.117Z,14.09
2022-09-12T01:00:50.659Z,14.09
2022-09-12T01:06:41.236Z,14.10
2022-09-12T01:11:47.123Z,14.13
2022-09-12T01:16:53.668Z,14.15
2022-09-12T01:22:31.436Z,14.23
2022-09-12T01:28:10.927Z,14.28
2022-09-12T01:33:37.332Z,14.32
2022-09-12T01:38:48.812Z,14.30
2022-09-12T01:44:07.500Z,14.32
2022-09-12T01:49:14.805Z,14.26
2022-09-12T01:54:29.870Z,14.26
2022-09-12T01:59:36.252Z,14.28
2022-09-12T02:04:43.149Z,14.29
2022-09-12T02:09:53.070Z,14.31
2022-09-12T02:15:04.388Z,14.30
2022-09-12T02:20:21.374Z,14.31
2022-09-12T02:25:38.415Z,14.28
2022-09-12T02:30:49.760Z,14.28
2022-09-12T02:35:58.533Z,14.26
2022-09-12T02:41:02.364Z,14.27
2022-09-12T02:46:10.362Z,14.23
2022-09-12T02:51:14.250Z,14.19
2022-09-12T02:56:22.301Z,14.12
2022-09-12T03:01:33.115Z,14.10
2022-09-12T03:07:11.085Z,14.07
2022-09-12T03:12:28.040Z,14.01
2022-09-12T03:17:41.978Z,13.99
2022-09-12T03:22:56.644Z,13.99
2022-09-12T03:28:01.638Z,13.96
2022-09-12T03:33:05.886Z,13.83
2022-09-12T03:38:10.386Z,13.81
2022-09-12T03:43:12.373Z,13.73
2022-09-12T03:48:14.401Z,13.66
2022-09-12T03:53:17.363Z,13.69
2022-09-12T03:58:19.271Z,13.70
2022-09-12T04:03:21.120Z,13.70
2022-09-12T04:08:28.895Z,13.97
2022-09-12T04:13:32.332Z,13.83
2022-09-12T04:18:36.611Z,13.77
2022-09-12T04:23:43.529Z,13.75
2022-09-12T04:28:46.658Z,13.71
2022-09-12T04:33:48.705Z,13.69
2022-09-12T04:38:53.861Z,13.68
2022-09-12T04:44:02.190Z,13.68
2022-09-12T04:49:09.394Z,13.68
2022-09-12T04:54:16.279Z,13.69
2022-09-12T04:59:26.526Z,13.67
2022-09-12T05:04:28.888Z,13.70
2022-09-12T05:09:31.940Z,13.77
2022-09-12T05:14:36.039Z,13.77
2022-09-12T05:19:40.194Z,13.77
2022-09-12T05:24:50.606Z,13.78
2022-09-12T05:29:58.402Z,13.82
2022-09-12T05:35:05.140Z,13.84
2022-09-12T05:40:08.590Z,13.86
2022-09-12T05:45:15.133Z,13.94
2022-09-12T05:50:23.380Z,13.91
2022-09-12T05:55:25.360Z,13.89
2022-09-12T06:00:33.329Z,13.88
2022-09-12T06:05:47.616Z,13.93
2022-09-12T06:10:51.802Z,13.96
2022-09-12T06:16:06.228Z,13.99
2022-09-12T06:21:15.458Z,14.08
2022-09-12T06:26:25.681Z,14.15
2022-09-12T06:31:33.869Z,14.27
2022-09-12T06:36:41.421Z,14.41
2022-09-12T06:41:51.179Z,14.57
2022-09-12T06:46:55.114Z,14.71
2022-09-12T06:52:01.749Z,14.83
2022-09-12T06:57:07.491Z,14.97
2022-09-12T07:02:10.019Z,15.11
2022-09-12T07:07:13.015Z,15.29
2022-09-12T07:12:16.993Z,15.41
2022-09-12T07:17:21.040Z,15.47
2022-09-12T07:22:25.728Z,15.51
2022-09-12T07:27:29.502Z,15.56
2022-09-12T07:32:31.558Z,15.61
2022-09-12T07:37:36.636Z,15.66
2022-09-12T07:42:40.976Z,15.74
2022-09-12T07:47:42.738Z,15.84
2022-09-12T07:52:46.807Z,15.94
2022-09-12T07:57:54.802Z,16.04
2022-09-12T08:02:56.722Z,16.15
2022-09-12T08:08:00.996Z,16.19
2022-09-12T08:13:03.811Z,16.31
2022-09-12T08:18:08.102Z,16.42
2022-09-12T08:23:09.798Z,16.58
2022-09-12T08:28:13.766Z,16.71
2022-09-12T08:33:15.505Z,16.86
2022-09-12T08:38:19.807Z,16.98
2022-09-12T08:43:38.775Z,17.12
2022-09-12T08:48:43.951Z,17.26
2022-09-12T08:53:47.915Z,17.39
2022-09-12T08:58:50.090Z,17.48
2022-09-12T09:04:10.103Z,17.59
2022-09-12T09:09:29.825Z,17.63
2022-09-12T09:15:21.414Z,17.67
2022-09-12T09:20:37.196Z,17.76
2022-09-12T09:26:14.728Z,17.77
2022-09-12T09:31:21.445Z,17.81
2022-09-12T09:36:49.555Z,17.82
2022-09-12T09:42:17.027Z,17.89
2022-09-12T09:47:20.937Z,17.95
2022-09-12T09:52:27.748Z,18.09
2022-09-12T09:57:35.247Z,18.25
2022-09-12T10:02:37.238Z,18.51
2022-09-12T10:07:38.950Z,18.73
2022-09-12T10:12:41.012Z,18.86
2022-09-12T10:17:52.609Z,19.00
2022-09-12T10:22:54.373Z,19.05
2022-09-12T10:28:00.808Z,19.15
2022-09-12T10:33:11.158Z,19.22
2022-09-12T10:38:30.381Z,19.36
2022-09-12T10:43:42.392Z,19.42
2022-09-12T10:49:05.173Z,19.50
2022-09-12T10:54:10.622Z,19.70
2022-09-12T10:59:34.346Z,19.91
2022-09-12T11:04:57.468Z,20.16
2022-09-12T11:10:18.630Z,20.22
2022-09-12T11:15:29.746Z,20.72
2022-09-12T11:21:05.456Z,20.73
2022-09-12T11:26:42.491Z,21.12
2022-09-12T11:32:08.520Z,21.52
2022-09-12T11:37:18.057Z,21.53
2022-09-12T11:42:26.971Z,21.63
2022-09-12T11:47:37.033Z,21.66
2022-09-12T11:52:41.837Z,21.70
2022-09-12T11:57:58.859Z,21.83
2022-09-12T12:03:09.423Z,22.09
2022-09-12T12:08:11.515Z,22.30
2022-09-12T12:13:29.770Z,22.37
2022-09-12T12:18:36.394Z,23.16
2022-09-12T12:23:40.529Z,23.31
2022-09-12T12:28:50.435Z,23.43
2022-09-12T12:33:54.334Z,23.78
2022-09-12T12:38:56.078Z,24.08
2022-09-12T12:43:57.934Z,24.49
2022-09-12T12:49:18.029Z,24.93
2022-09-12T12:54:57.077Z,25.07
2022-09-12T13:00:06.948Z,25.34
2022-09-12T13:05:18.473Z,25.19
2022-09-12T13:10:29.932Z,25.32
2022-09-12T13:15:41.412Z,25.72
2022-09-12T13:21:11.193Z,26.23
2022-09-12T13:26:26.631Z,25.93
2022-09-12T13:31:39.450Z,26.03
2022-09-12T13:37:11.221Z,26.58
2022-09-12T13:42:28.146Z,26.87
2022-09-12T13:47:41.253Z,27.13
2022-09-12T13:52:47.128Z,27.03
2022-09-12T13:57:58.148Z,27.13
2022-09-12T14:03:27.737Z,26.81
2022-09-12T14:08:30.313Z,26.10
2022-09-12T14:13:36.105Z,25.62
2022-09-12T14:18:39.101Z,25.37
2022-09-12T14:23:48.946Z,25.40
2022-09-12T14:28:55.494Z,25.49
2022-09-12T14:34:16.947Z,25.25
2022-09-12T14:39:28.777Z,25.03
2022-09-12T14:44:33.286Z,24.73
2022-09-12T14:49:36.638Z,24.60
2022-09-12T14:54:40.217Z,24.93
2022-09-12T14:59:49.931Z,25.51
2022-09-12T15:05:04.357Z,24.93
2022-09-12T15:10:31.472Z,24.63
2022-09-12T15:15:34.000Z,24.72
2022-09-12T15:20:38.026Z,24.45
2022-09-12T15:25:42.122Z,24.20
2022-09-12T15:30:47.820Z,24.06
2022-09-12T15:35:55.397Z,23.91
2022-09-12T15:40:57.350Z,23.67
2022-09-12T15:45:59.374Z,23.54
2022-09-12T15:51:04.951Z,23.48
2022-09-12T15:56:08.892Z,23.50
2022-09-12T16:01:12.896Z,23.53
2022-09-12T16:06:15.605Z,23.64
2022-09-12T16:11:21.474Z,23.71
2022-09-12T16:16:33.185Z,23.70
2022-09-12T16:21:36.753Z,23.77
2022-09-12T16:26:52.341Z,23.76
2022-09-12T16:31:56.604Z,23.69
2022-09-12T16:37:01.872Z,23.55
2022-09-12T16:42:08.695Z,23.41
2022-09-12T16:47:15.045Z,23.35
2022-09-12T16:52:17.098Z,23.31
2022-09-12T16:57:19.687Z,23.17
2022-09-12T17:02:23.746Z,23.03
2022-09-12T17:07:27.696Z,22.85
2022-09-12T17:12:31.410Z,22.70
2022-09-12T17:17:33.314Z,22.58
2022-09-12T17:22:38.202Z,22.49
2022-09-12T17:27:43.587Z,22.32
2022-09-12T17:32:45.941Z,22.18
2022-09-12T17:37:51.066Z,22.10
2022-09-12T17:42:52.843Z,21.96
2022-09-12T17:47:59.412Z,22.07
2022-09-12T17:53:03.335Z,21.80
2022-09-12T17:58:06.442Z,21.62
2022-09-12T18:03:08.198Z,21.46
2022-09-12T18:08:12.543Z,21.29
2022-09-12T18:13:16.348Z,21.13
2022-09-12T18:18:21.554Z,21.03
2022-09-12T18:23:27.935Z,20.95
2022-09-12T18:28:35.449Z,20.91
2022-09-12T18:33:38.678Z,20.83
2022-09-12T18:38:41.159Z,20.78
2022-09-12T18:43:43.450Z,20.73
2022-09-12T18:48:48.075Z,20.70
2022-09-12T18:54:03.886Z,20.64
2022-09-12T18:59:09.785Z,20.58
2022-09-12T19:04:14.517Z,20.52
2022-09-12T19:09:23.291Z,20.43
2022-09-12T19:14:26.944Z,20.40
2022-09-12T19:19:28.734Z,20.34
2022-09-12T19:24:30.958Z,20.27
2022-09-12T19:29:32.806Z,20.24
2022-09-12T19:34:34.494Z,20.22
2022-09-12T19:39:36.236Z,20.19
2022-09-12T19:44:42.837Z,20.15
2022-09-12T19:49:49.358Z,20.12
2022-09-12T19:54:55.797Z,20.08
2022-09-12T20:00:02.997Z,20.08
2022-09-12T20:05:08.338Z,20.08
2022-09-12T20:10:12.435Z,20.05
2022-09-12T20:15:16.583Z,20.01
2022-09-12T20:20:25.802Z,19.96
2022-09-12T20:25:30.149Z,19.91
2022-09-12T20:30:31.924Z,19.86
2022-09-12T20:35:33.745Z,19.84
2022-09-12T20:40:38.726Z,19.80
2022-09-12T20:45:41.628Z,19.79
2022-09-12T20:50:48.852Z,19.75
2022-09-12T20:55:53.778Z,19.70
2022-09-12T21:00:57.679Z,19.68
2022-09-12T21:06:04.792Z,19.63
2022-09-12T21:11:10.033Z,19.55
2022-09-12T21:16:19.152Z,19.48
2022-09-12T21:21:23.567Z,19.42
2022-09-12T21:26:31.451Z,19.31
2022-09-12T21:31:33.162Z,19.20
2022-09-12T21:36:34.885Z,19.07
2022-09-12T21:41:36.567Z,19.00
2022-09-12T21:46:38.563Z,18.90
2022-09-12T21:51:42.557Z,18.86
2022-09-12T21:56:47.659Z,18.81
2022-09-12T22:01:51.854Z,18.80
2022-09-12T22:06:58.622Z,18.77
2022-09-12T22:12:05.126Z,18.72
2022-09-12T22:17:08.099Z,18.63
2022-09-12T22:22:28.595Z,18.61
2022-09-12T22:27:33.264Z,18.56
2022-09-12T22:32:37.766Z,18.58
2022-09-12T22:37:43.838Z,18.51
2022-09-12T22:42:50.133Z,18.43
2022-09-12T22:48:05.090Z,18.32
2022-09-12T22:53:15.513Z,18.23
2022-09-12T22:58:17.695Z,18.16
2022-09-12T23:03:24.829Z,18.04
2022-09-12T23:08:29.574Z,17.96
2022-09-12T23:13:33.934Z,17.91
2022-09-12T23:18:42.583Z,17.94
2022-09-12T23:23:47.483Z,17.91
2022-09-12T23:28:57.122Z,17.93
2022-09-12T23:34:04.189Z,17.83
2022-09-12T23:39:11.786Z,17.76
2022-09-12T23:44:14.088Z,17.69
2022-09-12T23:49:15.718Z,17.56
2022-09-12T23:54:22.476Z,17.52
2022-09-12T23:59:26.437Z,17.52
